createdAt,value
2023-02-06T00:01:56.132Z,95616.00
2023-02-06T00:04:25.201Z,95621.97
2023-02-06T00:06:54.154Z,95617.56
2023-02-06T00:09:24.544Z,95623.56
2023-02-06T00:11:53.429Z,95628.97
2023-02-06T00:14:22.393Z,95635.00
2023-02-06T00:16:51.355Z,95636.25
2023-02-06T00:19:20.357Z,95636.72
2023-02-06T00:21:49.413Z,95650.44
2023-02-06T00:24:18.382Z,95647.03
2023-02-06T00:26:49.635Z,95648.56
2023-02-06T00:29:18.597Z,95660.28
2023-02-06T00:31:48.968Z,95664.13
2023-02-06T00:34:17.895Z,95666.72
2023-02-06T00:36:46.902Z,95667.06
2023-02-06T00:39:16.327Z,95667.97
2023-02-06T00:41:45.406Z,95669.94
2023-02-06T00:44:15.894Z,95681.09
2023-02-06T00:46:44.885Z,95680.59
2023-02-06T00:49:14.155Z,95694.56
2023-02-06T00:51:43.297Z,95697.88
2023-02-06T00:54:12.546Z,95707.13
2023-02-06T00:56:41.550Z,95711.78
2023-02-06T00:59:10.896Z,95703.38
2023-02-06T01:01:43.741Z,95708.16
2023-02-06T01:04:12.763Z,95704.25
2023-02-06T01:06:41.694Z,95708.44
2023-02-06T01:09:10.806Z,95707.97
2023-02-06T01:11:39.750Z,95709.19
2023-02-06T01:14:10.547Z,95704.03
2023-02-06T01:16:39.544Z,95705.09
2023-02-06T01:19:09.962Z,95702.69
2023-02-06T01:21:40.228Z,95700.88
2023-02-06T01:24:09.362Z,95704.97
2023-02-06T01:26:40.377Z,95697.47
2023-02-06T01:29:09.482Z,95706.41
2023-02-06T01:31:38.498Z,95704.66
2023-02-06T01:34:07.774Z,95700.16
2023-02-06T01:36:39.346Z,95701.25
2023-02-06T01:39:09.460Z,95686.50
2023-02-06T01:41:38.451Z,95687.31
2023-02-06T01:44:13.794Z,95697.72
2023-02-06T01:46:46.355Z,95702.25
2023-02-06T01:49:20.915Z,95690.81
2023-02-06T01:51:53.172Z,95693.44
2023-02-06T01:54:22.456Z,95695.41
2023-02-06T01:56:54.897Z,95693.28
2023-02-06T01:59:24.672Z,95689.19
2023-02-06T02:01:53.823Z,95690.50
2023-02-06T02:04:26.759Z,95685.31
2023-02-06T02:07:08.524Z,95682.16
2023-02-06T02:09:38.899Z,95677.97
2023-02-06T02:12:08.659Z,95680.06
2023-02-06T02:14:38.827Z,95676.44
2023-02-06T02:17:26.434Z,95681.59
2023-02-06T02:20:24.469Z,95684.19
2023-02-06T02:23:11.244Z,95680.22
2023-02-06T02:25:58.639Z,95682.91
2023-02-06T02:28:59.101Z,95680.31
2023-02-06T02:31:58.559Z,95694.97
2023-02-06T02:35:04.011Z,95705.88
2023-02-06T02:37:44.151Z,95718.09
2023-02-06T02:40:21.709Z,95710.69
2023-02-06T02:43:00.384Z,95715.50
2023-02-06T02:45:37.473Z,95717.63
2023-02-06T02:48:12.516Z,95721.72
2023-02-06T02:50:45.126Z,95720.44
2023-02-06T02:53:15.503Z,95731.44
2023-02-06T02:55:44.525Z,95723.72
2023-02-06T02:58:16.817Z,95736.72
2023-02-06T03:00:49.821Z,95738.38
2023-02-06T03:03:23.460Z,95735.53
2023-02-06T03:06:09.766Z,95749.59
2023-02-06T03:08:48.084Z,95747.25
2023-02-06T03:11:20.721Z,95755.69
2023-02-06T03:13:55.417Z,95747.00
2023-02-06T03:16:31.269Z,95750.97
2023-02-06T03:19:06.127Z,95754.38
2023-02-06T03:21:38.361Z,95756.59
2023-02-06T03:24:11.743Z,95753.66
2023-02-06T03:26:43.221Z,95761.41
2023-02-06T03:29:16.321Z,95763.03
2023-02-06T03:31:51.105Z,95759.13
2023-02-06T03:34:24.550Z,95749.66
2023-02-06T03:36:55.306Z,95752.25
2023-02-06T03:39:25.199Z,95755.16
2023-02-06T03:41:57.074Z,95749.63
2023-02-06T03:44:31.894Z,95747.13
2023-02-06T03:47:04.666Z,95753.13
2023-02-06T03:49:35.186Z,95739.72
2023-02-06T03:52:09.644Z,95742.41
2023-02-06T03:54:43.748Z,95748.28
2023-02-06T03:57:19.536Z,95755.75
2023-02-06T03:59:48.946Z,95759.34
2023-02-06T04:02:19.484Z,95755.69
2023-02-06T04:04:48.560Z,95759.72
2023-02-06T04:07:23.798Z,95759.53
2023-02-06T04:09:53.425Z,95765.84
2023-02-06T04:12:23.038Z,95769.50
2023-02-06T04:14:52.257Z,95759.41
2023-02-06T04:17:40.585Z,95764.28
2023-02-06T04:20:12.061Z,95774.72
2023-02-06T04:22:43.224Z,95768.16
2023-02-06T04:25:12.676Z,95775.78
2023-02-06T04:27:42.467Z,95784.94
2023-02-06T04:30:12.675Z,95776.59
2023-02-06T04:32:41.808Z,95793.59
2023-02-06T04:35:11.087Z,95793.25
2023-02-06T04:37:40.151Z,95792.88
2023-02-06T04:40:13.027Z,95790.28
2023-02-06T04:42:42.063Z,95795.56
2023-02-06T04:45:11.663Z,95797.59
2023-02-06T04:47:41.307Z,95800.84
2023-02-06T04:50:11.924Z,95804.13
2023-02-06T04:52:40.919Z,95802.03
2023-02-06T04:55:11.551Z,95801.81
2023-02-06T04:57:43.588Z,95799.34
2023-02-06T05:00:14.860Z,95808.72
2023-02-06T05:02:47.564Z,95811.75
2023-02-06T05:05:16.332Z,95813.28
2023-02-06T05:07:45.296Z,95812.34
2023-02-06T05:10:16.227Z,95814.56
2023-02-06T05:12:46.879Z,95827.03
2023-02-06T05:15:15.967Z,95822.22
2023-02-06T05:17:45.094Z,95837.00
2023-02-06T05:20:14.064Z,95840.56
2023-02-06T05:22:43.059Z,95841.22
2023-02-06T05:25:12.153Z,95838.91
2023-02-06T05:27:43.096Z,95833.63
2023-02-06T05:30:13.405Z,95826.81
2023-02-06T05:32:42.586Z,95835.00
2023-02-06T05:35:11.904Z,95817.75
2023-02-06T05:37:41.601Z,95819.28
2023-02-06T05:40:12.696Z,95815.88
2023-02-06T05:42:43.184Z,95822.28
2023-02-06T05:45:12.321Z,95817.94
2023-02-06T05:47:42.063Z,95816.19
2023-02-06T05:50:11.387Z,95818.22
2023-02-06T05:52:40.415Z,95819.16
2023-02-06T05:55:11.030Z,95818.34
2023-02-06T05:57:40.148Z,95818.47
2023-02-06T06:00:12.693Z,95817.88
2023-02-06T06:02:41.761Z,95802.19
2023-02-06T06:05:10.892Z,95799.69
2023-02-06T06:07:40.112Z,95805.81
2023-02-06T06:10:10.222Z,95813.91
2023-02-06T06:12:39.474Z,95819.66
2023-02-06T06:15:11.836Z,95829.97
2023-02-06T06:17:41.567Z,95828.69
2023-02-06T06:20:11.362Z,95820.25
2023-02-06T06:22:40.900Z,95826.22
2023-02-06T06:25:10.160Z,95836.03
2023-02-06T06:27:39.242Z,95835.00
2023-02-06T06:30:11.497Z,95838.75
2023-02-06T06:32:40.568Z,95837.88
2023-02-06T06:35:10.492Z,95841.94
2023-02-06T06:37:39.418Z,95841.06
2023-02-06T06:40:09.291Z,95846.72
2023-02-06T06:42:40.287Z,95844.78
2023-02-06T06:45:11.472Z,95852.50
2023-02-06T06:47:40.583Z,95857.91
2023-02-06T06:50:09.949Z,95855.56
2023-02-06T06:52:38.977Z,95862.22
2023-02-06T06:55:09.116Z,95854.69
2023-02-06T06:57:38.110Z,95848.69
2023-02-06T07:00:09.473Z,95852.69
2023-02-06T07:02:40.193Z,95860.09
2023-02-06T07:05:09.695Z,95861.88
2023-02-06T07:07:39.765Z,95866.75
2023-02-06T07:10:10.154Z,95878.97
2023-02-06T07:12:39.516Z,95875.59
2023-02-06T07:15:09.457Z,95868.91
2023-02-06T07:17:40.351Z,95877.13
2023-02-06T07:20:11.347Z,95877.34
2023-02-06T07:22:40.565Z,95873.09
2023-02-06T07:25:10.006Z,95876.06
2023-02-06T07:27:39.635Z,95873.50
2023-02-06T07:30:09.966Z,95881.25
2023-02-06T07:32:41.060Z,95873.66
2023-02-06T07:35:10.464Z,95873.59
2023-02-06T07:37:39.536Z,95872.97
2023-02-06T07:40:09.547Z,95876.06
2023-02-06T07:42:38.519Z,95879.63
2023-02-06T07:45:17.585Z,95874.69
2023-02-06T07:47:48.062Z,95880.59
2023-02-06T07:50:17.443Z,95880.91
2023-02-06T07:52:46.517Z,95882.41
2023-02-06T07:55:15.617Z,95876.72
2023-02-06T07:57:45.356Z,95883.00
2023-02-06T08:00:15.635Z,95890.84
2023-02-06T08:02:44.874Z,95889.25
2023-02-06T08:05:15.498Z,95893.19
2023-02-06T08:07:44.528Z,95887.75
2023-02-06T08:10:13.686Z,95892.13
2023-02-06T08:12:43.247Z,95889.66
2023-02-06T08:15:12.338Z,95895.53
2023-02-06T08:17:43.985Z,95899.22
2023-02-06T08:20:15.354Z,95885.16
2023-02-06T08:22:44.484Z,95894.94
2023-02-06T08:25:13.628Z,95893.09
2023-02-06T08:27:42.696Z,95894.41
2023-02-06T08:30:13.700Z,95893.88
2023-02-06T08:32:43.330Z,95888.44
2023-02-06T08:35:12.487Z,95885.22
2023-02-06T08:37:43.136Z,95893.19
2023-02-06T08:40:13.897Z,95890.66
2023-02-06T08:42:46.955Z,95884.53
2023-02-06T08:45:16.848Z,95886.53
2023-02-06T08:47:45.818Z,95892.56
2023-02-06T08:50:14.904Z,95892.88
2023-02-06T08:52:45.518Z,95900.91
2023-02-06T08:55:14.888Z,95909.44
2023-02-06T08:57:43.882Z,95906.16
2023-02-06T09:00:14.503Z,95896.38
2023-02-06T09:02:43.622Z,95898.91
2023-02-06T09:05:12.832Z,95900.22
2023-02-06T09:07:42.012Z,95903.41
2023-02-06T09:10:26.716Z,95907.47
2023-02-06T09:12:57.268Z,95920.81
2023-02-06T09:15:26.904Z,95907.81
2023-02-06T09:17:56.546Z,95920.19
2023-02-06T09:20:26.928Z,95924.81
2023-02-06T09:22:56.042Z,95923.03
2023-02-06T09:25:26.885Z,95921.03
2023-02-06T09:27:57.095Z,95915.72
2023-02-06T09:30:26.286Z,95921.34
2023-02-06T09:32:55.308Z,95925.81
2023-02-06T09:35:24.586Z,95923.44
2023-02-06T09:37:53.762Z,95913.81
2023-02-06T09:40:27.268Z,95909.47
2023-02-06T09:42:58.430Z,95911.91
2023-02-06T09:45:30.532Z,95904.63
2023-02-06T09:48:07.826Z,95917.59
2023-02-06T09:50:44.149Z,95906.00
2023-02-06T09:53:23.153Z,95901.38
2023-02-06T09:55:57.351Z,95895.03
2023-02-06T09:58:42.605Z,95895.78
2023-02-06T10:01:20.929Z,95889.88
2023-02-06T10:04:05.457Z,95881.53
2023-02-06T10:06:42.375Z,95875.63
2023-02-06T10:09:17.643Z,95871.91
2023-02-06T10:11:54.701Z,95876.69
2023-02-06T10:14:31.787Z,95867.94
2023-02-06T10:17:04.597Z,95865.38
2023-02-06T10:19:41.781Z,95865.72
2023-02-06T10:22:17.211Z,95864.66
2023-02-06T10:24:51.670Z,95857.22
2023-02-06T10:27:21.705Z,95855.72
2023-02-06T10:29:52.234Z,95852.63
2023-02-06T10:32:35.207Z,95853.41
2023-02-06T10:35:26.519Z,95852.59
2023-02-06T10:38:13.027Z,95854.31
2023-02-06T10:40:51.068Z,95844.38
2023-02-06T10:43:31.576Z,95842.47
2023-02-06T10:46:20.213Z,95841.28
2023-02-06T10:48:59.158Z,95846.66
2023-02-06T10:51:32.407Z,95845.91
2023-02-06T10:54:04.493Z,95846.63
2023-02-06T10:56:38.475Z,95845.16
2023-02-06T10:59:12.481Z,95847.91
2023-02-06T11:01:44.916Z,95840.19
2023-02-06T11:04:17.159Z,95836.94
2023-02-06T11:06:47.127Z,95836.69
2023-02-06T11:09:17.278Z,95832.97
2023-02-06T11:11:48.791Z,95842.22
2023-02-06T11:14:24.701Z,95847.34
2023-02-06T11:16:55.712Z,95842.78
2023-02-06T11:19:28.116Z,95842.97
2023-02-06T11:21:58.953Z,95843.50
2023-02-06T11:24:28.272Z,95858.22
2023-02-06T11:27:00.470Z,95857.94
2023-02-06T11:29:33.092Z,95846.91
2023-02-06T11:32:06.733Z,95856.31
2023-02-06T11:34:40.432Z,95847.66
2023-02-06T11:37:34.269Z,95837.78
2023-02-06T11:40:26.831Z,95838.19
2023-02-06T11:43:16.553Z,95841.72
2023-02-06T11:45:47.430Z,95843.06
2023-02-06T11:48:40.088Z,95848.78
2023-02-06T11:51:10.494Z,95843.81
2023-02-06T11:53:40.327Z,95844.25
2023-02-06T11:56:18.789Z,95851.63
2023-02-06T11:58:49.219Z,95846.09
2023-02-06T12:01:21.277Z,95849.53
2023-02-06T12:04:00.907Z,95847.19
2023-02-06T12:06:33.501Z,95843.84
2023-02-06T12:09:05.847Z,95841.34
2023-02-06T12:11:38.837Z,95841.66
2023-02-06T12:14:14.593Z,95842.16
2023-02-06T12:16:46.477Z,95837.34
2023-02-06T12:19:21.584Z,95836.13
2023-02-06T12:21:54.633Z,95834.88
2023-02-06T12:24:27.494Z,95843.75
2023-02-06T12:26:57.793Z,95831.53
2023-02-06T12:29:31.968Z,95829.22
2023-02-06T12:32:09.004Z,95834.09
2023-02-06T12:34:53.994Z,95833.59
2023-02-06T12:37:32.186Z,95838.44
2023-02-06T12:40:02.497Z,95843.19
2023-02-06T12:42:40.828Z,95847.88
2023-02-06T12:45:23.591Z,95847.53
2023-02-06T12:47:58.222Z,95844.69
2023-02-06T12:50:34.175Z,95851.22
2023-02-06T12:53:08.263Z,95849.88
2023-02-06T12:55:41.711Z,95853.59
2023-02-06T12:58:26.719Z,95852.50
2023-02-06T13:01:30.173Z,95857.19
2023-02-06T13:04:05.218Z,95860.91
2023-02-06T13:06:46.093Z,95857.03
2023-02-06T13:09:22.325Z,95867.03
2023-02-06T13:11:51.611Z,95873.56
2023-02-06T13:14:23.171Z,95872.81
2023-02-06T13:17:07.017Z,95865.44
2023-02-06T13:19:55.361Z,95869.22
2023-02-06T13:22:45.042Z,95875.16
2023-02-06T13:25:51.029Z,95869.97
2023-02-06T13:28:57.090Z,95878.28
2023-02-06T13:31:32.710Z,95872.22
2023-02-06T13:34:07.437Z,95878.59
2023-02-06T13:36:47.909Z,95880.69
2023-02-06T13:39:32.929Z,95879.28
2023-02-06T13:42:20.035Z,95879.22
2023-02-06T13:44:49.151Z,95878.69
2023-02-06T13:47:34.572Z,95878.81
2023-02-06T13:50:44.100Z,95876.06
2023-02-06T13:53:39.203Z,95890.16
2023-02-06T13:56:30.566Z,95897.56
2023-02-06T13:59:06.722Z,95889.22
2023-02-06T14:01:35.757Z,95896.75
2023-02-06T14:04:09.600Z,95901.53
2023-02-06T14:06:57.035Z,95906.31
2023-02-06T14:09:48.629Z,95908.75
2023-02-06T14:12:34.078Z,95909.84
2023-02-06T14:15:15.345Z,95908.06
2023-02-06T14:18:09.261Z,95907.91
2023-02-06T14:20:48.894Z,95912.59
2023-02-06T14:23:30.603Z,95913.13
2023-02-06T14:26:16.601Z,95911.22
2023-02-06T14:28:57.114Z,95914.09
2023-02-06T14:31:47.931Z,95914.13
2023-02-06T14:34:37.009Z,95919.19
2023-02-06T14:37:26.330Z,95917.53
2023-02-06T14:39:57.412Z,95903.34
2023-02-06T14:42:30.337Z,95918.34
2023-02-06T14:45:04.178Z,95911.38
2023-02-06T14:47:44.446Z,95911.25
2023-02-06T14:50:21.298Z,95913.31
2023-02-06T14:52:55.991Z,95916.03
2023-02-06T14:55:37.323Z,95922.03
2023-02-06T14:58:08.221Z,95921.34
2023-02-06T15:00:39.404Z,95925.31
2023-02-06T15:03:10.365Z,95928.06
2023-02-06T15:05:39.400Z,95918.63
2023-02-06T15:08:08.815Z,95923.56
2023-02-06T15:10:40.070Z,95923.69
2023-02-06T15:13:22.194Z,95930.09
2023-02-06T15:15:58.660Z,95929.72
2023-02-06T15:18:31.132Z,95933.78
2023-02-06T15:21:03.798Z,95934.34
2023-02-06T15:23:44.239Z,95940.34
2023-02-06T15:26:24.635Z,95943.47
2023-02-06T15:28:59.085Z,95942.41
2023-02-06T15:31:31.556Z,95949.91
2023-02-06T15:34:02.108Z,95958.66
2023-02-06T15:36:34.137Z,95955.94
2023-02-06T15:39:06.398Z,95954.41
2023-02-06T15:41:36.665Z,95963.28
2023-02-06T15:44:11.693Z,95955.25
2023-02-06T15:46:42.904Z,95958.53
2023-02-06T15:49:19.049Z,95969.03
2023-02-06T15:51:54.088Z,95979.53
2023-02-06T15:54:25.326Z,95974.47
2023-02-06T15:56:58.202Z,95984.03
2023-02-06T15:59:29.092Z,95988.13
2023-02-06T16:02:00.294Z,95991.13
2023-02-06T16:04:32.608Z,95992.94
2023-02-06T16:07:06.213Z,95995.91
2023-02-06T16:09:42.668Z,96002.44
2023-02-06T16:12:12.693Z,96001.94
2023-02-06T16:14:45.521Z,96009.16
2023-02-06T16:17:29.644Z,95999.34
2023-02-06T16:20:02.575Z,96007.13
2023-02-06T16:22:34.462Z,96018.31
2023-02-06T16:25:22.749Z,96016.91
2023-02-06T16:27:52.649Z,96017.03
2023-02-06T16:30:27.634Z,96014.19
2023-02-06T16:33:01.316Z,96023.94
2023-02-06T16:35:30.651Z,96027.59
2023-02-06T16:38:00.416Z,96029.25
2023-02-06T16:40:30.141Z,96030.09
2023-02-06T16:42:59.126Z,96026.16
2023-02-06T16:45:29.161Z,96039.69
2023-02-06T16:48:00.413Z,96039.25
2023-02-06T16:50:31.321Z,96046.72
2023-02-06T16:53:02.226Z,96044.72
2023-02-06T16:55:31.336Z,96052.09
2023-02-06T16:58:01.966Z,96064.88
2023-02-06T17:00:33.787Z,96064.88
2023-02-06T17:03:04.734Z,96064.03
2023-02-06T17:05:36.462Z,96059.53
2023-02-06T17:08:15.226Z,96060.75
2023-02-06T17:10:44.579Z,96063.66
2023-02-06T17:13:16.456Z,96067.16
2023-02-06T17:15:47.923Z,96070.81
2023-02-06T17:18:20.533Z,96072.19
2023-02-06T17:20:52.953Z,96082.22
2023-02-06T17:23:22.296Z,96084.94
2023-02-06T17:25:52.367Z,96089.94
2023-02-06T17:28:22.051Z,96095.78
2023-02-06T17:30:51.444Z,96094.50
2023-02-06T17:33:22.179Z,96099.56
2023-02-06T17:35:51.623Z,96104.75
2023-02-06T17:38:20.801Z,96096.69
2023-02-06T17:40:49.868Z,96095.09
2023-02-06T17:43:19.060Z,96099.97
2023-02-06T17:45:48.668Z,96095.91
2023-02-06T17:48:17.755Z,96092.63
2023-02-06T17:50:49.491Z,96104.53
2023-02-06T17:53:18.573Z,96104.06
2023-02-06T17:55:47.728Z,96106.22
2023-02-06T17:58:18.903Z,96108.00
2023-02-06T18:00:49.705Z,96103.81
2023-02-06T18:03:20.715Z,96106.41
2023-02-06T18:05:59.416Z,96105.31
2023-02-06T18:08:30.009Z,96112.59
2023-02-06T18:10:59.551Z,96107.91
2023-02-06T18:13:29.302Z,96108.91
2023-02-06T18:15:59.447Z,96109.03
2023-02-06T18:18:30.866Z,96104.31
2023-02-06T18:21:01.763Z,96110.94
2023-02-06T18:23:30.829Z,96112.03
2023-02-06T18:26:03.920Z,96102.16
2023-02-06T18:28:34.309Z,96112.28
2023-02-06T18:31:03.870Z,96109.69
2023-02-06T18:33:35.464Z,96113.69
2023-02-06T18:36:08.629Z,96116.94
2023-02-06T18:38:37.821Z,96112.91
2023-02-06T18:41:28.006Z,96111.13
2023-02-06T18:43:56.252Z,96119.81
2023-02-06T18:46:25.572Z,96116.56
2023-02-06T18:48:55.354Z,96118.88
2023-02-06T18:51:26.605Z,96116.06
2023-02-06T18:53:55.683Z,96110.81
2023-02-06T18:56:25.764Z,96126.94
2023-02-06T18:58:54.874Z,96117.56
2023-02-06T19:01:26.006Z,96114.34
2023-02-06T19:03:55.650Z,96121.41
2023-02-06T19:06:30.633Z,96116.28
2023-02-06T19:09:07.267Z,96103.72
2023-02-06T19:11:37.471Z,96107.16
2023-02-06T19:14:07.690Z,96111.25
2023-02-06T19:16:38.676Z,96101.88
2023-02-06T19:19:09.207Z,96103.72
2023-02-06T19:21:40.441Z,96116.28
2023-02-06T19:24:12.966Z,96104.97
2023-02-06T19:26:43.712Z,96112.38
2023-02-06T19:29:16.821Z,96118.31
2023-02-06T19:31:47.185Z,96121.97
2023-02-06T19:34:16.363Z,96116.94
2023-02-06T19:36:46.879Z,96126.50
2023-02-06T19:39:16.196Z,96129.06
2023-02-06T19:41:46.052Z,96122.38
2023-02-06T19:44:16.297Z,96128.47
2023-02-06T19:46:45.947Z,96127.69
2023-02-06T19:49:15.060Z,96126.66
2023-02-06T19:51:44.990Z,96134.41
2023-02-06T19:54:15.871Z,96130.78
2023-02-06T19:56:47.181Z,96135.66
2023-02-06T19:59:19.433Z,96124.72
2023-02-06T20:01:49.973Z,96125.47
2023-02-06T20:04:20.809Z,96135.00
2023-02-06T20:06:51.409Z,96134.63
2023-02-06T20:09:22.915Z,96123.63
2023-02-06T20:11:52.365Z,96120.66
2023-02-06T20:14:22.324Z,96128.19
2023-02-06T20:16:51.750Z,96130.00
2023-02-06T20:19:23.662Z,96124.16
2023-02-06T20:21:55.380Z,96131.41
2023-02-06T20:24:29.212Z,96127.53
2023-02-06T20:27:01.423Z,96133.72
2023-02-06T20:29:32.876Z,96144.78
2023-02-06T20:32:03.093Z,96152.84
2023-02-06T20:34:32.236Z,96155.56
2023-02-06T20:37:02.469Z,96150.19
2023-02-06T20:39:34.865Z,96157.72
2023-02-06T20:42:03.999Z,96163.09
2023-02-06T20:44:33.035Z,96162.84
2023-02-06T20:47:02.579Z,96163.41
2023-02-06T20:49:32.342Z,96162.47
2023-02-06T20:52:01.667Z,96158.88
2023-02-06T20:54:31.380Z,96165.09
2023-02-06T20:57:02.005Z,96160.94
2023-02-06T20:59:31.014Z,96162.03
2023-02-06T21:02:00.288Z,96162.41
2023-02-06T21:04:32.886Z,96166.88
2023-02-06T21:07:02.044Z,96161.13
2023-02-06T21:09:31.177Z,96167.94
2023-02-06T21:12:01.908Z,96159.88
2023-02-06T21:14:32.778Z,96156.69
2023-02-06T21:17:01.984Z,96154.22
2023-02-06T21:19:31.193Z,96159.41
2023-02-06T21:22:01.135Z,96152.25
2023-02-06T21:24:31.570Z,96149.72
2023-02-06T21:27:02.071Z,96165.13
2023-02-06T21:29:31.763Z,96163.88
2023-02-06T21:32:13.306Z,96160.38
2023-02-06T21:34:43.661Z,96162.38
2023-02-06T21:37:12.678Z,96169.09
2023-02-06T21:39:43.836Z,96164.03
2023-02-06T21:42:14.715Z,96164.03
2023-02-06T21:44:47.019Z,96167.72
2023-02-06T21:47:16.088Z,96164.56
2023-02-06T21:49:46.677Z,96169.09
2023-02-06T21:52:15.810Z,96165.91
2023-02-06T21:54:44.908Z,96174.78
2023-02-06T21:57:15.369Z,96171.38
2023-02-06T21:59:45.128Z,96174.28
2023-02-06T22:02:14.150Z,96177.53
2023-02-06T22:04:43.262Z,96181.78
2023-02-06T22:07:13.647Z,96184.59
2023-02-06T22:09:42.946Z,96184.69
2023-02-06T22:12:11.933Z,96188.72
2023-02-06T22:14:42.985Z,96190.06
2023-02-06T22:17:11.946Z,96188.41
2023-02-06T22:19:41.092Z,96184.28
2023-02-06T22:22:10.230Z,96190.19
2023-02-06T22:24:39.255Z,96193.00
2023-02-06T22:27:08.257Z,96191.22
2023-02-06T22:29:38.045Z,96194.66
2023-02-06T22:32:08.497Z,96196.03
2023-02-06T22:34:37.505Z,96204.91
2023-02-06T22:37:06.613Z,96200.78
2023-02-06T22:39:35.658Z,96208.75
2023-02-06T22:42:05.065Z,96211.22
2023-02-06T22:44:34.154Z,96199.94
2023-02-06T22:47:03.652Z,96208.63
2023-02-06T22:49:34.726Z,96217.84
2023-02-06T22:52:03.736Z,96213.03
2023-02-06T22:54:32.906Z,96222.25
2023-02-06T22:57:01.930Z,96221.50
2023-02-06T22:59:30.965Z,96218.19
2023-02-06T23:02:01.188Z,96215.28
2023-02-06T23:04:35.082Z,96218.91
2023-02-06T23:07:04.247Z,96210.78
2023-02-06T23:09:39.528Z,96207.72
2023-02-06T23:12:11.852Z,96208.44
2023-02-06T23:14:41.377Z,96211.75
2023-02-06T23:17:10.585Z,96209.50
2023-02-06T23:19:41.765Z,96203.38
2023-02-06T23:22:11.415Z,96204.44
2023-02-06T23:24:41.644Z,96204.56
2023-02-06T23:27:11.222Z,96205.50
2023-02-06T23:29:41.390Z,96207.03
2023-02-06T23:32:11.008Z,96210.22
2023-02-06T23:34:41.511Z,96214.09
2023-02-06T23:37:11.117Z,96213.38
2023-02-06T23:39:40.126Z,96209.50
2023-02-06T23:42:09.156Z,96216.56
2023-02-06T23:44:38.797Z,96218.81
2023-02-06T23:47:07.833Z,96219.63
2023-02-06T23:49:41.437Z,96212.69
2023-02-06T23:52:13.501Z,96213.72
2023-02-06T23:54:43.250Z,96211.34
2023-02-06T23:57:12.287Z,96222.44
2023-02-06T23:59:41.290Z,96229.38
